KSNL/SNL METAR and TAF weather

Enter ICAO airport designator
Station Type Date Time Source
KSNL METAR 2019/12/13 03:15 UTC NOAA

KSNL 130315Z AUTO 18008KT 10SM BKN044 08/01 A3003 RMK AO2 T00770008


Station Type Date Time Source
KSNL Decoded METAR 2019/12/13 03:15 UTC NOAA

Shawnee, Shawnee Municipal Airport, OK, United States (KSNL) 35-21-26N 096-56-34W
Dec 12, 2019 - 10:15 PM EST / 2019.12.13 0315 UTC
Wind: from the S (180 degrees) at 9 MPH (8 KT):0
Visibility: 10 mile(s):0
Sky conditions: mostly cloudy
Temperature: 45.9 F (7.7 C)
Dew Point: 33.4 F (0.8 C)
Relative Humidity: 61%
Pressure (altimeter): 30.03 in. Hg (1016 hPa)
ob: KSNL 130315Z AUTO 18008KT 10SM BKN044 08/01 A3003 RMK AO2 T00770008
cycle: 3

Station Type Date Time Source
KSNL TAF UTC NOAA

Error!

Example: see airport list